Airfield :
LOGIN :

Register | Disclaimer

   EN    FR    IT 

 










Legend :    VFR   Marginal VFR   IFR   Intensive IFR   Very Intensive IFR
Visi :
Ceiling :
>= 8 km
>= 3000ft
5 to 8 km
1000 to 3000 ft
1500m to 5 km
500 to 1000 ft
800 to 1500m
200 to 500 ft
< 800m
< 200 ft
Symbols :   Thunderstorms  Fog  Heavy snow  Heavy precipitations  Wind > 20 kt
SIGMETs :     Misc.  Thunderstorms  Icing  Turbulence  Mountain Waves  Volcanic Ashes







- Airport Elevation : 776 ft
- IATA code : RMS


ETAR - Ramstein Air Base

CURRENT METAR :
  • 160756Z COR 00000KT 9999 SCT038 BKN048 02/01 A2978 RMK AO2A SLP098 T00150014 $ COR 0759

EXPIRED METARs :
  • 160739Z 00000KT 9999 SCT034 BKN048 02/02 A2977 RMK AO2A SLP094 $
  • 160656Z 28004KT 9999 FEW010 OVC032 02/02 A2974 RMK AO2A SLP084 T00220021 $
  • 160636Z AUTO 27003KT 9999 OVC032 02/02 A2973 RMK AO2 SLP082 $
  • 160616Z 00000KT 9999 SCT010 OVC029 02/02 A2972 RMK AO2A CIG 010V029 SLP078 $
  • 160606Z 00000KT 9999 OVC010 02/02 A2972 RMK AO2A CIG 009 RWY08 SLP078 $
  • 160556Z 00000KT 9999 OVC009 02/02 A2972 RMK AO2A OVC V BKN SLP078 60001 T00220021 10024 20019 52027 $

TAF AMD TAF ETAR
Valid from the 16 at 07:00 until the 17 at 08:00 UTC


160727Z 1607/1708 31009KT 9999 BKN020 610209 QNH2972INS
TEMPO 1617/1620 8000 -SHRA BKN010
BECMG 1620/1621 26006KT 9999 BKN015 610209 QNH2990INS
TEMPO 1623/1704 8000 -SHSN TX06/1614Z TNM00/1702Z
No reported NOTAMs for that airfield.



MET'MAP, your aeronautical weather chart ! - Copyright ORBIFLY December 2007 - Disclaimer

ORBIFLY MET'MAP TEAM :

Programming & Development : Alexandra Zaïnal
Concept & Development : Baudouin d'Aumeries
Co-Development & Prog : Marc-Olivier Méhu
Technical & hardware support : Manuel Goepfert

Contact : metmap@orbifly.com




SOURCES & CREDITS :

   NOAA